createdAt,value
2018-12-19T00:01:46.526Z,93792.72
2018-12-19T00:04:14.111Z,93792.73
2018-12-19T00:06:41.649Z,93793.52
2018-12-19T00:09:09.182Z,93789.37
2018-12-19T00:11:36.745Z,93783.05
2018-12-19T00:14:04.297Z,93775.53
2018-12-19T00:16:32.369Z,93772.31
2018-12-19T00:18:59.930Z,93766.40
2018-12-19T00:21:27.437Z,93755.48
2018-12-19T00:23:54.980Z,93759.55
2018-12-19T00:26:22.530Z,93751.75
2018-12-19T00:28:50.124Z,93749.36
2018-12-19T00:31:17.638Z,93745.34
2018-12-19T00:33:45.190Z,93736.23
2018-12-19T00:36:12.714Z,93726.08
2018-12-19T00:38:40.240Z,93724.14
2018-12-19T00:41:07.793Z,93724.49
2018-12-19T00:43:35.399Z,93716.27
2018-12-19T00:46:02.953Z,93732.16
2018-12-19T00:48:30.485Z,93735.43
2018-12-19T00:50:58.059Z,93735.18
2018-12-19T00:53:26.405Z,93722.23
2018-12-19T00:55:53.953Z,93714.44
2018-12-19T00:58:21.506Z,93726.94
2018-12-19T01:00:49.059Z,93734.02
2018-12-19T01:03:16.604Z,93743.41
2018-12-19T01:05:44.149Z,93745.66
2018-12-19T01:08:11.676Z,93740.00
2018-12-19T01:10:39.275Z,93740.69
2018-12-19T01:13:07.092Z,93748.98
2018-12-19T01:15:34.711Z,93740.55
2018-12-19T01:18:02.678Z,93740.88
2018-12-19T01:20:30.244Z,93745.98
2018-12-19T01:22:57.811Z,93737.20
2018-12-19T01:25:25.349Z,93735.91
2018-12-19T01:27:52.937Z,93750.92
2018-12-19T01:30:21.166Z,93751.05
2018-12-19T01:32:49.352Z,93756.09
2018-12-19T01:35:16.900Z,93766.59
2018-12-19T01:37:44.468Z,93762.91
2018-12-19T01:40:12.044Z,93772.21
2018-12-19T01:42:39.589Z,93771.45
2018-12-19T01:45:07.297Z,93784.07
2018-12-19T01:47:35.087Z,93778.84
2018-12-19T01:50:02.902Z,93780.41
2018-12-19T01:52:30.519Z,93783.52
2018-12-19T01:54:58.116Z,93787.28
2018-12-19T01:57:25.705Z,93793.83
2018-12-19T01:59:53.242Z,93793.13
2018-12-19T02:02:20.814Z,93794.52
2018-12-19T02:04:48.364Z,93785.50
2018-12-19T02:07:15.908Z,93786.72
2018-12-19T02:09:43.452Z,93783.79
2018-12-19T02:12:11.056Z,93779.13
2018-12-19T02:14:38.620Z,93781.70
2018-12-19T02:17:06.236Z,93786.54
2018-12-19T02:19:34.520Z,93787.38
2018-12-19T02:22:02.582Z,93796.51
2018-12-19T02:24:30.130Z,93780.86
2018-12-19T02:26:57.663Z,93798.52
2018-12-19T02:29:25.230Z,93782.92
2018-12-19T02:31:52.764Z,93792.53
2018-12-19T02:34:20.385Z,93788.59
2018-12-19T02:36:47.941Z,93786.09
2018-12-19T02:39:15.488Z,93784.48
2018-12-19T02:41:43.432Z,93783.09
2018-12-19T02:44:11.075Z,93780.52
2018-12-19T02:46:38.612Z,93776.25
2018-12-19T02:49:06.193Z,93783.86
2018-12-19T02:51:33.741Z,93787.67
2018-12-19T02:54:01.328Z,93787.55
2018-12-19T02:56:28.857Z,93780.48
2018-12-19T02:58:56.526Z,93780.83
2018-12-19T03:01:24.323Z,93773.67
2018-12-19T03:03:51.854Z,93769.58
2018-12-19T03:06:19.387Z,93765.24
2018-12-19T03:08:46.965Z,93772.04
2018-12-19T03:11:15.076Z,93786.05
2018-12-19T03:13:42.980Z,93777.30
2018-12-19T03:16:10.753Z,93782.80
2018-12-19T03:18:38.293Z,93765.80
2018-12-19T03:21:05.867Z,93767.79
2018-12-19T03:23:33.415Z,93770.84
2018-12-19T03:26:01.341Z,93776.82
2018-12-19T03:28:28.983Z,93770.08
2018-12-19T03:30:56.567Z,93771.66
2018-12-19T03:33:24.573Z,93765.27
2018-12-19T03:35:52.089Z,93763.63
2018-12-19T03:38:26.343Z,93765.96
2018-12-19T03:40:53.884Z,93770.44
2018-12-19T03:43:21.439Z,93772.89
2018-12-19T03:45:49.014Z,93771.25
2018-12-19T03:48:22.099Z,93766.34
2018-12-19T03:50:49.965Z,93767.73
2018-12-19T03:53:17.497Z,93763.01
2018-12-19T03:55:45.050Z,93768.92
2018-12-19T03:58:12.654Z,93767.51
2018-12-19T04:00:40.264Z,93771.22
2018-12-19T04:03:07.817Z,93763.70
2018-12-19T04:05:35.365Z,93761.84
2018-12-19T04:08:02.906Z,93759.27
2018-12-19T04:10:30.497Z,93764.77
2018-12-19T04:12:58.021Z,93767.95
2018-12-19T04:15:25.576Z,93770.00
2018-12-19T04:17:53.144Z,93771.97
2018-12-19T04:20:20.686Z,93777.36
2018-12-19T04:22:48.631Z,93775.06
2018-12-19T04:25:16.213Z,93771.12
2018-12-19T04:27:43.748Z,93768.19
2018-12-19T04:30:11.310Z,93769.88
2018-12-19T04:32:39.073Z,93768.55
2018-12-19T04:35:06.693Z,93762.42
2018-12-19T04:37:34.238Z,93767.04
2018-12-19T04:40:05.668Z,93767.56
2018-12-19T04:42:31.547Z,93760.45
2018-12-19T04:44:59.137Z,93762.98
2018-12-19T04:47:26.707Z,93764.63
2018-12-19T04:49:54.228Z,93767.81
2018-12-19T04:52:21.780Z,93767.41
2018-12-19T04:54:49.333Z,93761.14
2018-12-19T04:57:16.919Z,93762.94
2018-12-19T04:59:44.481Z,93763.59
2018-12-19T05:02:12.021Z,93764.72
2018-12-19T05:04:39.881Z,93758.00
2018-12-19T05:07:07.459Z,93760.03
2018-12-19T05:09:35.016Z,93764.08
2018-12-19T05:12:02.861Z,93759.39
2018-12-19T05:14:30.407Z,93765.97
2018-12-19T05:16:57.938Z,93766.70
2018-12-19T05:19:25.577Z,93771.57
2018-12-19T05:21:53.208Z,93776.70
2018-12-19T05:24:20.793Z,93775.31
2018-12-19T05:26:48.405Z,93775.70
2018-12-19T05:29:15.993Z,93767.95
2018-12-19T05:31:44.233Z,93781.28
2018-12-19T05:34:12.106Z,93786.27
2018-12-19T05:36:39.653Z,93785.53
2018-12-19T05:39:07.186Z,93786.31
2018-12-19T05:41:34.754Z,93787.98
2018-12-19T05:44:02.266Z,93784.73
2018-12-19T05:46:29.801Z,93790.55
2018-12-19T05:48:57.408Z,93781.23
2018-12-19T05:51:25.012Z,93789.61
2018-12-19T05:53:52.567Z,93794.52
2018-12-19T05:56:20.105Z,93798.13
2018-12-19T05:58:47.674Z,93794.52
2018-12-19T06:01:16.064Z,93803.49
2018-12-19T06:03:43.688Z,93810.36
2018-12-19T06:06:11.253Z,93814.37
2018-12-19T06:08:38.789Z,93823.66
2018-12-19T06:11:06.368Z,93822.05
2018-12-19T06:13:33.897Z,93826.08
2018-12-19T06:16:01.539Z,93832.80
2018-12-19T06:18:29.095Z,93826.63
2018-12-19T06:20:56.755Z,93824.79
2018-12-19T06:23:24.269Z,93819.87
2018-12-19T06:25:51.859Z,93820.04
2018-12-19T06:28:19.397Z,93823.97
2018-12-19T06:30:47.052Z,93823.16
2018-12-19T06:33:14.602Z,93820.97
2018-12-19T06:35:42.129Z,93823.00
2018-12-19T06:38:10.003Z,93821.92
2018-12-19T06:40:37.537Z,93818.63
2018-12-19T06:43:05.070Z,93817.41
2018-12-19T06:45:32.618Z,93817.38
2018-12-19T06:48:00.186Z,93807.00
2018-12-19T06:50:27.736Z,93818.42
2018-12-19T06:52:55.324Z,93818.85
2018-12-19T06:55:22.961Z,93824.44
2018-12-19T06:57:50.529Z,93817.99
2018-12-19T07:00:18.020Z,93810.11
2018-12-19T07:02:45.633Z,93817.36
2018-12-19T07:05:13.326Z,93818.08
2018-12-19T07:07:40.976Z,93815.48
2018-12-19T07:10:08.577Z,93814.98
2018-12-19T07:12:36.241Z,93818.09
2018-12-19T07:15:03.992Z,93812.77
2018-12-19T07:17:31.549Z,93811.73
2018-12-19T07:19:59.081Z,93816.32
2018-12-19T07:22:26.618Z,93814.09
2018-12-19T07:24:54.165Z,93817.98
2018-12-19T07:27:21.725Z,93821.67
2018-12-19T07:29:49.510Z,93820.39
2018-12-19T07:32:17.192Z,93826.90
2018-12-19T07:34:44.768Z,93821.94
2018-12-19T07:37:12.327Z,93820.20
2018-12-19T07:39:39.863Z,93827.31
2018-12-19T07:42:07.418Z,93826.98
2018-12-19T07:44:34.957Z,93825.37
2018-12-19T07:47:02.642Z,93823.70
2018-12-19T07:49:30.209Z,93825.61
2018-12-19T07:51:57.873Z,93836.00
2018-12-19T07:54:25.410Z,93834.68
2018-12-19T07:56:53.018Z,93833.64
2018-12-19T07:59:20.542Z,93833.95
2018-12-19T08:01:48.133Z,93829.39
2018-12-19T08:04:16.128Z,93832.70
2018-12-19T08:06:44.708Z,93829.49
2018-12-19T08:09:12.298Z,93835.30
2018-12-19T08:11:39.901Z,93842.17
2018-12-19T08:14:07.474Z,93836.67
2018-12-19T08:16:35.008Z,93837.39
2018-12-19T08:19:02.828Z,93830.66
2018-12-19T08:21:30.385Z,93826.84
2018-12-19T08:23:57.910Z,93835.30
2018-12-19T08:26:25.466Z,93838.85
2018-12-19T08:28:53.070Z,93836.59
2018-12-19T08:31:20.753Z,93836.55
2018-12-19T08:33:48.270Z,93840.73
2018-12-19T08:36:16.114Z,93839.34
2018-12-19T08:38:43.797Z,93847.38
2018-12-19T08:41:11.310Z,93845.64
2018-12-19T08:43:38.888Z,93850.69
2018-12-19T08:46:06.406Z,93851.28
2018-12-19T08:48:33.925Z,93848.01
2018-12-19T08:51:02.140Z,93852.43
2018-12-19T08:53:29.663Z,93847.42
2018-12-19T08:55:57.196Z,93844.20
2018-12-19T08:58:24.784Z,93837.84
2018-12-19T09:00:52.337Z,93848.91
2018-12-19T09:03:19.869Z,93844.70
2018-12-19T09:05:47.454Z,93848.73
2018-12-19T09:08:15.410Z,93844.81
2018-12-19T09:10:43.241Z,93855.33
2018-12-19T09:13:10.757Z,93853.87
2018-12-19T09:15:43.872Z,93856.82
2018-12-19T09:18:11.412Z,93868.63
2018-12-19T09:20:39.333Z,93865.44
2018-12-19T09:23:06.940Z,93863.23
2018-12-19T09:25:34.457Z,93863.02
2018-12-19T09:28:02.342Z,93865.75
2018-12-19T09:30:29.920Z,93865.61
2018-12-19T09:32:57.628Z,93867.85
2018-12-19T09:35:25.618Z,93868.46
2018-12-19T09:37:53.166Z,93862.91
2018-12-19T09:40:20.755Z,93865.51
2018-12-19T09:42:48.377Z,93862.56
2018-12-19T09:45:15.905Z,93846.48
2018-12-19T09:47:43.505Z,93844.38
2018-12-19T09:50:11.125Z,93837.94
2018-12-19T09:52:38.658Z,93832.91
2018-12-19T09:55:06.706Z,93838.09
2018-12-19T09:57:34.255Z,93840.77
2018-12-19T10:00:03.234Z,93844.67
2018-12-19T10:02:31.116Z,93836.59
2018-12-19T10:04:58.641Z,93831.11
2018-12-19T10:07:26.153Z,93826.89
2018-12-19T10:09:53.726Z,93818.86
2018-12-19T10:12:21.288Z,93813.28
2018-12-19T10:14:48.909Z,93816.55
2018-12-19T10:17:16.423Z,93818.80
2018-12-19T10:19:43.982Z,93811.30
2018-12-19T10:22:13.570Z,93806.78
2018-12-19T10:24:46.637Z,93809.39
2018-12-19T10:27:18.737Z,93799.37
2018-12-19T10:29:46.263Z,93802.27
2018-12-19T10:32:13.816Z,93795.44
2018-12-19T10:34:43.021Z,93792.73
2018-12-19T10:37:10.833Z,93794.51
2018-12-19T10:39:38.366Z,93795.14
2018-12-19T10:42:05.904Z,93786.05
2018-12-19T10:44:33.430Z,93788.68
2018-12-19T10:47:01.033Z,93788.68
2018-12-19T10:49:28.573Z,93792.43
2018-12-19T10:51:56.105Z,93793.58
2018-12-19T10:54:23.644Z,93804.00
2018-12-19T10:56:51.283Z,93799.47
2018-12-19T10:59:19.983Z,93796.56
2018-12-19T11:01:47.800Z,93795.89
2018-12-19T11:04:15.328Z,93790.36
2018-12-19T11:06:42.881Z,93786.48
2018-12-19T11:09:10.701Z,93784.05
2018-12-19T11:11:38.216Z,93788.12
2018-12-19T11:14:05.748Z,93788.91
2018-12-19T11:16:33.297Z,93783.89
2018-12-19T11:19:00.834Z,93782.59
2018-12-19T11:21:28.465Z,93770.88
2018-12-19T11:23:56.073Z,93763.09
2018-12-19T11:26:23.776Z,93758.86
2018-12-19T11:28:51.392Z,93768.94
2018-12-19T11:31:19.010Z,93773.47
2018-12-19T11:33:46.703Z,93771.69
2018-12-19T11:36:14.264Z,93767.64
2018-12-19T11:38:41.795Z,93760.47
2018-12-19T11:41:09.374Z,93763.08
2018-12-19T11:43:36.960Z,93760.14
2018-12-19T11:46:04.529Z,93757.88
2018-12-19T11:48:32.080Z,93756.73
2018-12-19T11:50:59.659Z,93748.27
2018-12-19T11:53:27.661Z,93740.64
2018-12-19T11:55:55.333Z,93747.15
2018-12-19T11:58:22.848Z,93746.80
2018-12-19T12:00:50.555Z,93742.27
2018-12-19T12:03:18.901Z,93739.33
2018-12-19T12:05:46.549Z,93732.83
2018-12-19T12:08:14.146Z,93723.42
2018-12-19T12:10:41.739Z,93724.05
2018-12-19T12:13:09.698Z,93729.59
2018-12-19T12:15:37.248Z,93727.31
2018-12-19T12:18:04.784Z,93720.50
2018-12-19T12:20:32.429Z,93722.13
2018-12-19T12:23:00.084Z,93727.66
2018-12-19T12:25:28.097Z,93727.16
2018-12-19T12:27:55.710Z,93729.62
2018-12-19T12:30:23.258Z,93720.17
2018-12-19T12:32:50.840Z,93724.39
2018-12-19T12:35:18.518Z,93723.25
2018-12-19T12:37:46.040Z,93716.92
2018-12-19T12:40:13.585Z,93707.19
2018-12-19T12:42:41.142Z,93705.87
2018-12-19T12:45:08.690Z,93699.71
2018-12-19T12:47:36.410Z,93692.89
2018-12-19T12:50:04.709Z,93691.44
2018-12-19T12:52:32.287Z,93687.36
2018-12-19T12:54:59.833Z,93680.52
2018-12-19T12:57:27.416Z,93674.36
2018-12-19T12:59:54.967Z,93673.39
2018-12-19T13:02:22.986Z,93667.55
2018-12-19T13:04:50.621Z,93664.60
2018-12-19T13:07:18.134Z,93653.86
2018-12-19T13:09:45.685Z,93645.20
2018-12-19T13:12:13.232Z,93642.09
2018-12-19T13:14:40.784Z,93645.66
2018-12-19T13:17:08.352Z,93640.15
2018-12-19T13:19:35.868Z,93633.27
2018-12-19T13:22:03.526Z,93624.83
2018-12-19T13:24:31.100Z,93620.92
2018-12-19T13:26:59.009Z,93616.73
2018-12-19T13:29:26.646Z,93614.41
2018-12-19T13:31:54.321Z,93608.92
2018-12-19T13:34:21.871Z,93602.08
2018-12-19T13:36:50.133Z,93606.31
2018-12-19T13:39:17.749Z,93608.59
2018-12-19T13:41:45.332Z,93599.13
2018-12-19T13:44:12.961Z,93601.72
2018-12-19T13:46:40.527Z,93599.41
2018-12-19T13:49:08.089Z,93596.78
2018-12-19T13:51:35.667Z,93600.39
2018-12-19T13:54:03.252Z,93594.83
2018-12-19T13:56:30.889Z,93601.72
2018-12-19T13:58:58.595Z,93599.41
2018-12-19T14:01:26.150Z,93592.55
2018-12-19T14:03:53.733Z,93588.65
2018-12-19T14:06:21.444Z,93594.70
2018-12-19T14:08:49.059Z,93589.19
2018-12-19T14:11:16.601Z,93590.03
2018-12-19T14:13:44.149Z,93583.20
2018-12-19T14:16:11.748Z,93585.48
2018-12-19T14:18:39.381Z,93588.70
2018-12-19T14:21:07.092Z,93589.02
2018-12-19T14:23:34.641Z,93591.33
2018-12-19T14:26:02.276Z,93587.09
2018-12-19T14:28:29.849Z,93587.77
2018-12-19T14:30:57.462Z,93576.74
2018-12-19T14:33:25.011Z,93583.50
2018-12-19T14:35:52.592Z,93582.23
2018-12-19T14:38:20.234Z,93580.11
2018-12-19T14:40:48.145Z,93586.84
2018-12-19T14:43:15.714Z,93596.59
2018-12-19T14:45:43.392Z,93588.81
2018-12-19T14:48:10.952Z,93589.13
2018-12-19T14:50:38.508Z,93590.80
2018-12-19T14:53:06.072Z,93585.89
2018-12-19T14:55:33.805Z,93588.14
2018-12-19T14:58:01.357Z,93584.61
2018-12-19T15:00:28.955Z,93589.52
2018-12-19T15:02:56.548Z,93585.31
2018-12-19T15:05:24.149Z,93587.12
2018-12-19T15:07:51.753Z,93586.30
2018-12-19T15:10:19.473Z,93584.33
2018-12-19T15:12:47.016Z,93581.72
2018-12-19T15:15:14.576Z,93587.29
2018-12-19T15:17:42.262Z,93581.26
2018-12-19T15:20:09.851Z,93579.17
2018-12-19T15:22:37.402Z,93584.70
2018-12-19T15:25:05.226Z,93585.69
2018-12-19T15:27:33.014Z,93586.33
2018-12-19T15:30:00.780Z,93592.19
2018-12-19T15:32:28.326Z,93588.63
2018-12-19T15:34:55.961Z,93588.45
2018-12-19T15:37:23.506Z,93590.91
2018-12-19T15:39:51.065Z,93586.34
2018-12-19T15:42:18.618Z,93587.01
2018-12-19T15:44:46.180Z,93590.23
2018-12-19T15:47:13.753Z,93591.70
2018-12-19T15:49:41.279Z,93593.31
2018-12-19T15:52:08.859Z,93596.41
2018-12-19T15:54:36.492Z,93593.48
2018-12-19T15:57:04.035Z,93592.86
2018-12-19T15:59:31.636Z,93599.02
2018-12-19T16:01:59.215Z,93596.41
2018-12-19T16:04:27.337Z,93605.83
2018-12-19T16:06:54.930Z,93610.07
2018-12-19T16:09:22.531Z,93601.47
2018-12-19T16:11:50.125Z,93617.19
2018-12-19T16:14:17.801Z,93627.27
2018-12-19T16:16:45.362Z,93619.15
2018-12-19T16:19:12.966Z,93629.18
2018-12-19T16:21:40.531Z,93628.19
2018-12-19T16:24:08.095Z,93634.34
2018-12-19T16:26:35.694Z,93633.02
2018-12-19T16:29:03.259Z,93637.82
2018-12-19T16:31:30.887Z,93638.73
2018-12-19T16:33:58.565Z,93644.92
2018-12-19T16:36:26.169Z,93645.55
2018-12-19T16:38:53.745Z,93648.09
2018-12-19T16:41:21.393Z,93650.20
2018-12-19T16:43:48.981Z,93655.88
2018-12-19T16:46:16.549Z,93664.94
2018-12-19T16:48:44.801Z,93667.54
2018-12-19T16:51:12.394Z,93660.42
2018-12-19T16:53:39.951Z,93674.23
2018-12-19T16:56:08.028Z,93674.56
2018-12-19T16:58:35.599Z,93679.27
2018-12-19T17:01:03.282Z,93681.23
2018-12-19T17:03:30.854Z,93679.94
2018-12-19T17:05:58.414Z,93684.47
2018-12-19T17:08:26.188Z,93687.73
2018-12-19T17:10:53.741Z,93685.47
2018-12-19T17:13:21.288Z,93690.37
2018-12-19T17:15:49.218Z,93695.23
2018-12-19T17:18:16.842Z,93700.44
2018-12-19T17:20:44.363Z,93699.13
2018-12-19T17:23:11.921Z,93691.68
2018-12-19T17:25:39.451Z,93696.86
2018-12-19T17:28:07.029Z,93698.80
2018-12-19T17:30:34.562Z,93703.69
2018-12-19T17:33:02.236Z,93704.30
2018-12-19T17:35:29.763Z,93702.67
2018-12-19T17:37:57.382Z,93701.22
2018-12-19T17:40:25.223Z,93702.63
2018-12-19T17:42:59.246Z,93703.67
2018-12-19T17:45:22.282Z,93703.01
2018-12-19T17:47:50.066Z,93700.41
2018-12-19T17:50:17.610Z,93697.81
2018-12-19T17:52:45.161Z,93700.36
2018-12-19T17:55:12.713Z,93690.80
2018-12-19T17:57:40.256Z,93690.66
2018-12-19T18:00:10.165Z,93685.73
2018-12-19T18:02:37.811Z,93692.56
2018-12-19T18:05:05.473Z,93694.50
2018-12-19T18:07:33.134Z,93691.27
2018-12-19T18:10:01.542Z,93694.20
2018-12-19T18:12:29.224Z,93691.28
2018-12-19T18:14:56.805Z,93687.05
2018-12-19T18:17:24.348Z,93690.95
2018-12-19T18:19:51.876Z,93683.50
2018-12-19T18:22:19.458Z,93690.65
2018-12-19T18:24:47.031Z,93691.95
2018-12-19T18:27:14.585Z,93684.64
2018-12-19T18:29:42.118Z,93682.05
2018-12-19T18:32:09.674Z,93682.55
2018-12-19T18:34:37.542Z,93682.55
2018-12-19T18:37:05.077Z,93685.80
2018-12-19T18:39:32.662Z,93682.87
2018-12-19T18:42:00.214Z,93683.37
2018-12-19T18:44:27.709Z,93682.55
2018-12-19T18:46:55.339Z,93681.25
2018-12-19T18:49:22.893Z,93680.27
2018-12-19T18:51:50.457Z,93678.31
2018-12-19T18:54:17.993Z,93676.05
2018-12-19T18:56:45.554Z,93675.37
2018-12-19T18:59:13.200Z,93677.34
2018-12-19T19:01:40.805Z,93678.12
2018-12-19T19:04:08.357Z,93672.78
2018-12-19T19:06:36.158Z,93676.20
2018-12-19T19:09:04.446Z,93673.11
2018-12-19T19:11:32.002Z,93671.16
2018-12-19T19:13:59.589Z,93671.97
2018-12-19T19:16:27.147Z,93667.58
2018-12-19T19:18:54.653Z,93662.69
2018-12-19T19:21:22.261Z,93662.34
2018-12-19T19:23:49.848Z,93661.84
2018-12-19T19:26:17.438Z,93664.27
2018-12-19T19:28:44.955Z,93671.41
2018-12-19T19:31:12.620Z,93660.50
2018-12-19T19:33:40.277Z,93660.28
2018-12-19T19:36:07.808Z,93664.19
2018-12-19T19:38:35.384Z,93656.41
2018-12-19T19:41:02.998Z,93654.75
2018-12-19T19:43:30.543Z,93656.73
2018-12-19T19:45:58.126Z,93651.21
2018-12-19T19:48:25.740Z,93657.69
2018-12-19T19:50:53.299Z,93653.12
2018-12-19T19:53:20.868Z,93652.80
2018-12-19T19:55:48.385Z,93649.56
2018-12-19T19:58:15.923Z,93652.77
2018-12-19T20:00:43.453Z,93652.43
2018-12-19T20:03:11.247Z,93659.27
2018-12-19T20:05:38.992Z,93658.91
2018-12-19T20:08:06.610Z,93661.18
2018-12-19T20:10:35.018Z,93657.95
2018-12-19T20:13:02.743Z,93651.47
2018-12-19T20:15:30.425Z,93651.48
2018-12-19T20:17:58.008Z,93653.41
2018-12-19T20:20:25.627Z,93652.77
2018-12-19T20:22:53.178Z,93657.34
2018-12-19T20:25:21.022Z,93656.06
2018-12-19T20:27:48.787Z,93645.48
2018-12-19T20:30:16.362Z,93648.61
2018-12-19T20:32:43.911Z,93652.51
2018-12-19T20:35:11.496Z,93656.74
2018-12-19T20:37:39.056Z,93651.84
2018-12-19T20:40:06.599Z,93647.31
2018-12-19T20:42:34.218Z,93650.99
2018-12-19T20:45:02.076Z,93646.92
2018-12-19T20:47:29.652Z,93645.63
2018-12-19T20:49:57.176Z,93646.64
2018-12-19T20:52:24.733Z,93645.34
2018-12-19T20:54:52.255Z,93641.44
2018-12-19T20:57:19.801Z,93637.22
2018-12-19T20:59:47.372Z,93624.41
2018-12-19T21:02:15.290Z,93630.89
2018-12-19T21:04:42.847Z,93623.30
2018-12-19T21:07:10.410Z,93620.53
2018-12-19T21:09:37.960Z,93618.61
2018-12-19T21:12:05.539Z,93610.02
2018-12-19T21:14:33.340Z,93620.03
2018-12-19T21:17:06.643Z,93616.98
2018-12-19T21:19:34.181Z,93622.02
2018-12-19T21:22:01.925Z,93615.88
2018-12-19T21:24:29.501Z,93613.58
2018-12-19T21:26:57.015Z,93611.17
2018-12-19T21:29:24.534Z,93614.17
2018-12-19T21:31:52.079Z,93609.61
2018-12-19T21:34:19.611Z,93619.34
2018-12-19T21:36:47.277Z,93621.61
2018-12-19T21:39:14.898Z,93621.93
2018-12-19T21:41:42.546Z,93614.52
2018-12-19T21:44:10.093Z,93609.99
2018-12-19T21:46:37.723Z,93615.18
2018-12-19T21:49:05.388Z,93622.75
2018-12-19T21:51:33.076Z,93616.47
2018-12-19T21:54:00.939Z,93624.88
2018-12-19T21:56:28.619Z,93621.47
2018-12-19T21:58:56.276Z,93620.65
2018-12-19T22:01:23.958Z,93621.13
2018-12-19T22:03:51.595Z,93622.28
2018-12-19T22:06:19.330Z,93614.52
2018-12-19T22:08:46.897Z,93616.47
2018-12-19T22:11:14.549Z,93614.97
2018-12-19T22:13:42.278Z,93613.56
2018-12-19T22:16:14.433Z,93623.18
2018-12-19T22:18:46.314Z,93617.52
2018-12-19T22:21:14.235Z,93613.13
2018-12-19T22:23:42.140Z,93623.50
2018-12-19T22:26:11.380Z,93618.00
2018-12-19T22:28:39.162Z,93624.17
2018-12-19T22:31:06.823Z,93621.05
2018-12-19T22:33:34.497Z,93619.63
2018-12-19T22:36:02.124Z,93631.41
2018-12-19T22:38:29.645Z,93637.77
2018-12-19T22:40:57.261Z,93632.91
2018-12-19T22:43:24.830Z,93639.05
2018-12-19T22:45:52.377Z,93645.19
2018-12-19T22:48:19.955Z,93635.64
2018-12-19T22:50:47.602Z,93637.63
2018-12-19T22:53:15.226Z,93634.89
2018-12-19T22:55:42.786Z,93639.46
2018-12-19T22:58:10.439Z,93633.14
2018-12-19T23:00:43.938Z,93638.50
2018-12-19T23:03:11.570Z,93634.61
2018-12-19T23:05:44.684Z,93637.50
2018-12-19T23:08:12.896Z,93638.84
2018-12-19T23:10:40.969Z,93640.83
2018-12-19T23:13:08.536Z,93639.20
2018-12-19T23:15:36.275Z,93637.24
2018-12-19T23:18:09.897Z,93643.23
2018-12-19T23:20:37.582Z,93636.08
2018-12-19T23:23:05.199Z,93641.47
2018-12-19T23:25:32.798Z,93636.95
2018-12-19T23:28:00.392Z,93633.69
2018-12-19T23:30:28.008Z,93642.75
2018-12-19T23:32:56.861Z,93639.34
2018-12-19T23:35:24.475Z,93641.80
2018-12-19T23:37:52.173Z,93641.94
2018-12-19T23:40:19.835Z,93651.20
2018-12-19T23:42:47.464Z,93652.16
2018-12-19T23:45:15.092Z,93652.16
2018-12-19T23:47:42.716Z,93652.80
2018-12-19T23:50:10.601Z,93655.38
2018-12-19T23:52:38.281Z,93645.62
2018-12-19T23:55:06.101Z,93641.03
2018-12-19T23:57:33.693Z,93644.29
